Time;durP1;ratioP1;P1;durP2;ratioP2;P2;SDS_P1;SDS_P2;PMS_P1;PMS_P2;Temp;Humidity;BMP_temperature;BMP_pressure;BME280_temperature;BME280_humidity;BME280_pressure;Samples;Min_cycle;Max_cycle;Signal;HPM_P1;HPM_P2
2021/05/03 00:01:55;;;;;;;1.00;1.00;;;14.40;84.70;;;;;;5055142;28;20031;-69
2021/05/03 00:04:21;;;;;;;2.28;0.80;;;14.40;84.60;;;;;;5055665;28;20036;-71
2021/05/03 00:06:48;;;;;;;1.65;1.05;;;14.40;84.20;;;;;;5057068;28;20411;-69
2021/05/03 00:09:14;;;;;;;2.50;0.90;;;14.30;83.80;;;;;;5056792;28;20075;-69
2021/05/03 00:11:39;;;;;;;0.82;0.80;;;14.30;84.70;;;;;;5056610;28;20389;-70
2021/05/03 00:14:05;;;;;;;5.90;1.10;;;14.20;84.50;;;;;;5056835;28;20450;-71
2021/05/03 00:16:31;;;;;;;2.72;0.70;;;14.20;84.80;;;;;;5056906;28;20057;-70
2021/05/03 00:18:57;;;;;;;3.83;1.00;;;14.10;84.40;;;;;;5055441;28;20078;-71
2021/05/03 00:21:23;;;;;;;0.90;0.90;;;14.10;85.30;;;;;;5055387;28;20112;-69
2021/05/03 00:23:49;;;;;;;3.03;1.25;;;14.20;84.90;;;;;;5056672;28;20032;-69
2021/05/03 00:26:15;;;;;;;1.55;0.93;;;14.10;85.60;;;;;;5056630;28;20025;-69
2021/05/03 00:28:41;;;;;;;0.82;0.80;;;14.10;85.80;;;;;;5055219;28;20036;-70
2021/05/03 00:31:08;;;;;;;2.15;1.02;;;14.00;85.30;;;;;;5056508;28;20130;-71
2021/05/03 00:33:34;;;;;;;0.73;0.73;;;14.10;84.90;;;;;;5056118;28;20029;-74
2021/05/03 00:36:00;;;;;;;0.65;0.63;;;14.00;85.30;;;;;;5055131;28;20040;-71
2021/05/03 00:38:26;;;;;;;1.88;1.05;;;14.00;84.90;;;;;;5055046;28;20115;-69
2021/05/03 00:40:52;;;;;;;1.88;0.90;;;14.00;85.20;;;;;;5056344;28;20040;-70
2021/05/03 00:43:20;;;;;;;0.70;0.70;;;14.00;85.20;;;;;;5056319;28;20025;-71
2021/05/03 00:45:47;;;;;;;0.98;0.80;;;14.00;85.20;;;;;;5054915;28;20021;-72
2021/05/03 00:48:14;;;;;;;1.63;0.70;;;14.00;85.40;;;;;;5056222;28;20048;-72
2021/05/03 00:50:40;;;;;;;0.73;0.73;;;14.00;85.20;;;;;;5054793;28;20037;-70
2021/05/03 00:53:07;;;;;;;1.13;0.90;;;13.90;86.30;;;;;;5054776;28;20079;-71
2021/05/03 00:55:33;;;;;;;2.50;0.90;;;14.00;85.80;;;;;;5071194;28;20051;-70
2021/05/03 00:58:03;;;;;;;2.00;1.05;;;13.90;86.00;;;;;;5058102;28;20039;-68
2021/05/03 01:00:28;;;;;;;1.13;1.00;;;14.00;85.90;;;;;;5076005;28;20036;-71
2021/05/03 01:02:55;;;;;;;1.15;1.05;;;13.90;86.20;;;;;;5075783;28;20044;-72
2021/05/03 01:05:21;;;;;;;0.80;0.80;;;13.90;86.50;;;;;;5057868;28;20028;-71
2021/05/03 01:07:48;;;;;;;3.83;0.82;;;13.90;86.10;;;;;;5057835;28;20074;-71
2021/05/03 01:10:15;;;;;;;2.42;1.00;;;13.90;86.60;;;;;;5075709;28;20120;-70
2021/05/03 01:12:41;;;;;;;1.77;1.00;;;13.80;86.60;;;;;;5075632;28;20500;-73
2021/05/03 01:15:09;;;;;;;0.90;0.73;;;13.90;86.60;;;;;;5057674;28;20086;-72
2021/05/03 01:17:37;;;;;;;1.05;1.00;;;13.90;86.80;;;;;;5057694;28;20146;-71
2021/05/03 01:20:14;;;;;;;2.05;0.80;;;13.90;87.30;;;;;;5057595;28;20472;-70
2021/05/03 01:22:41;;;;;;;1.40;1.02;;;13.90;87.00;;;;;;5057586;28;20063;-70
2021/05/03 01:25:08;;;;;;;0.80;0.80;;;13.90;87.60;;;;;;5057522;28;20025;-70
2021/05/03 01:27:35;;;;;;;0.85;0.85;;;13.90;87.70;;;;;;5075560;28;20027;-70
2021/05/03 01:30:04;;;;;;;1.10;1.10;;;13.90;87.20;;;;;;5075384;28;20042;-69
2021/05/03 01:32:30;;;;;;;1.08;1.08;;;13.80;87.60;;;;;;5057396;28;20032;-69
2021/05/03 01:34:56;;;;;;;2.10;0.98;;;13.70;88.30;;;;;;5075344;28;20428;-72
2021/05/03 01:37:22;;;;;;;0.82;0.82;;;13.70;89.00;;;;;;5075419;28;20556;-71
2021/05/03 01:39:48;;;;;;;0.85;0.85;;;13.60;89.40;;;;;;5075223;28;20032;-71
2021/05/03 01:42:14;;;;;;;0.95;0.93;;;13.60;89.70;;;;;;5057192;28;20119;-70
2021/05/03 01:44:41;;;;;;;1.40;1.00;;;13.50;90.10;;;;;;5074926;28;20049;-69
2021/05/03 01:47:08;;;;;;;3.03;1.10;;;13.50;90.40;;;;;;5057158;28;20027;-69
2021/05/03 01:49:35;;;;;;;1.08;0.90;;;13.50;90.30;;;;;;5056995;28;20040;-71
2021/05/03 01:52:01;;;;;;;0.80;0.80;;;13.40;90.40;;;;;;5057054;28;20029;-70
2021/05/03 01:54:27;;;;;;;2.40;0.88;;;13.40;90.30;;;;;;5074836;28;20049;-72
2021/05/03 01:56:53;;;;;;;5.25;1.20;;;13.30;90.60;;;;;;5056954;28;20032;-70
2021/05/03 01:59:19;;;;;;;1.00;0.90;;;13.30;90.80;;;;;;5074887;28;20028;-72
2021/05/03 02:01:45;;;;;;;1.98;1.20;;;13.30;90.70;;;;;;5074880;28;20024;-71
2021/05/03 02:04:11;;;;;;;1.00;1.00;;;13.30;90.90;;;;;;5056766;28;20492;-71
2021/05/03 02:06:38;;;;;;;2.95;1.08;;;13.30;90.80;;;;;;5074723;28;20063;-70
2021/05/03 02:09:13;;;;;;;1.20;1.10;;;13.30;90.70;;;;;;5056669;28;20028;-71
2021/05/03 02:11:39;;;;;;;1.40;0.90;;;13.40;90.90;;;;;;5074931;28;20028;-70
2021/05/03 02:14:06;;;;;;;1.98;1.02;;;13.30;91.00;;;;;;5056613;28;20113;-70
2021/05/03 02:16:32;;;;;;;0.85;0.85;;;13.30;90.90;;;;;;5056542;28;20373;-71
2021/05/03 02:18:58;;;;;;;1.02;1.02;;;13.30;90.90;;;;;;5074243;28;20419;-70
2021/05/03 02:21:24;;;;;;;1.08;1.08;;;13.30;90.80;;;;;;5074409;28;20082;-69
2021/05/03 02:23:50;;;;;;;4.00;1.00;;;13.40;90.90;;;;;;5073818;28;20028;-70
2021/05/03 02:26:16;;;;;;;2.03;1.15;;;13.40;90.90;;;;;;5074359;28;20021;-71
2021/05/03 02:28:42;;;;;;;1.25;1.25;;;13.40;90.80;;;;;;5056354;28;20032;-69
2021/05/03 02:31:08;;;;;;;5.15;1.30;;;13.40;90.90;;;;;;5056256;28;20083;-69
2021/05/03 02:33:34;;;;;;;1.85;1.75;;;13.40;91.10;;;;;;5074482;28;20469;-68
2021/05/03 02:36:01;;;;;;;2.13;1.20;;;13.30;91.20;;;;;;5056177;28;20031;-69
2021/05/03 02:38:30;;;;;;;2.55;1.17;;;13.30;91.20;;;;;;5074158;28;20024;-70
2021/05/03 02:40:56;;;;;;;1.30;1.20;;;13.20;91.30;;;;;;5073999;28;20035;-70
2021/05/03 02:43:22;;;;;;;1.55;1.45;;;13.20;91.60;;;;;;5073977;28;20033;-69
2021/05/03 02:45:48;;;;;;;1.73;1.63;;;13.20;91.30;;;;;;5073932;28;20055;-68
2021/05/03 02:48:14;;;;;;;1.08;1.08;;;13.20;91.40;;;;;;5073940;28;20453;-70
2021/05/03 02:50:40;;;;;;;1.52;1.40;;;13.20;91.50;;;;;;5055537;28;20039;-69
2021/05/03 02:53:06;;;;;;;1.60;1.50;;;13.10;91.80;;;;;;5074028;28;20021;-71
2021/05/03 02:55:32;;;;;;;1.15;1.15;;;13.10;91.70;;;;;;5073780;28;20056;-70
2021/05/03 02:57:58;;;;;;;2.25;1.30;;;13.20;91.70;;;;;;5055823;28;20025;-70
2021/05/03 03:00:29;;;;;;;1.30;1.20;;;13.20;91.60;;;;;;5055658;28;20066;-69
2021/05/03 03:02:55;;;;;;;2.10;1.45;;;13.20;91.10;;;;;;5073657;28;20038;-69
2021/05/03 03:05:21;;;;;;;1.20;1.20;;;13.10;91.50;;;;;;5073551;28;20025;-73
2021/05/03 03:07:50;;;;;;;1.60;1.50;;;13.10;91.60;;;;;;5055690;28;20442;-67
2021/05/03 03:10:16;;;;;;;1.60;1.50;;;13.00;91.60;;;;;;5073392;28;20029;-68
2021/05/03 03:12:42;;;;;;;1.27;1.17;;;13.00;92.20;;;;;;5073707;28;20074;-70
2021/05/03 03:15:11;;;;;;;1.42;1.33;;;13.00;92.50;;;;;;5055484;28;20082;-69
2021/05/03 03:17:37;;;;;;;2.60;1.38;;;12.90;92.50;;;;;;5073481;28;20029;-67
2021/05/03 03:20:07;;;;;;;2.42;1.42;;;13.00;92.50;;;;;;5073384;28;20111;-72
2021/05/03 03:22:34;;;;;;;1.70;1.60;;;12.90;92.70;;;;;;5055371;28;20028;-70
2021/05/03 03:25:00;;;;;;;1.50;1.40;;;12.80;92.80;;;;;;5055418;28;20029;-70
2021/05/03 03:27:26;;;;;;;1.85;1.75;;;12.80;93.40;;;;;;5073335;28;20039;-69
2021/05/03 03:29:52;;;;;;;2.47;1.30;;;12.80;94.20;;;;;;5055217;28;20036;-69
2021/05/03 03:32:17;;;;;;;2.17;1.85;;;12.80;94.90;;;;;;5073239;28;20087;-68
2021/05/03 03:34:43;;;;;;;2.10;2.00;;;12.80;95.50;;;;;;5055196;28;20044;-69
2021/05/03 03:37:09;;;;;;;2.30;2.00;;;12.80;96.20;;;;;;5072583;28;20424;-70
2021/05/03 03:39:35;;;;;;;3.45;2.00;;;12.70;96.30;;;;;;5073210;28;20035;-70
2021/05/03 03:42:01;;;;;;;3.53;2.20;;;12.60;97.00;;;;;;5073104;28;20368;-68
2021/05/03 03:44:27;;;;;;;3.17;2.55;;;12.50;97.10;;;;;;5073081;28;20037;-68
2021/05/03 03:46:52;;;;;;;5.40;2.67;;;12.50;97.60;;;;;;5073255;28;20029;-67
2021/05/03 03:49:18;;;;;;;4.20;2.72;;;12.50;98.40;;;;;;5073005;28;20024;-66
2021/05/03 03:51:44;;;;;;;5.30;3.67;;;12.50;98.60;;;;;;5072734;28;20027;-67
2021/05/03 03:54:10;;;;;;;3.10;2.80;;;12.50;99.00;;;;;;5072820;28;20052;-69
2021/05/03 03:56:36;;;;;;;3.80;2.75;;;12.40;99.60;;;;;;5072957;28;20028;-67
2021/05/03 03:59:02;;;;;;;2.75;2.33;;;12.40;99.90;;;;;;5072998;28;20029;-69
2021/05/03 04:01:30;;;;;;;9.20;2.45;;;12.30;99.90;;;;;;5054901;28;20035;-68
2021/05/03 04:04:02;;;;;;;2.63;2.42;;;12.30;99.90;;;;;;5072877;28;20052;-67
2021/05/03 04:06:40;;;;;;;3.17;2.28;;;12.30;99.90;;;;;;5072960;28;20028;-70
2021/05/03 04:09:13;;;;;;;2.60;2.40;;;12.30;99.90;;;;;;5054819;28;20595;-68
2021/05/03 04:22:40;;;;;;;3.08;2.78;;;12.30;99.90;;;;;;5072101;28;20055;-68
2021/05/03 04:28:02;;;;;;;4.32;3.00;;;12.30;99.90;;;;;;5044367;28;20045;-68
2021/05/03 04:30:28;;;;;;;6.45;3.00;;;12.40;99.90;;;;;;5051210;28;20060;-69
2021/05/03 04:32:55;;;;;;;3.90;3.20;;;12.40;99.90;;;;;;5076904;28;20051;-69
2021/05/03 04:35:20;;;;;;;3.10;2.78;;;12.40;99.90;;;;;;5072444;28;20065;-67
2021/05/03 04:37:46;;;;;;;4.28;3.10;;;12.40;99.90;;;;;;5087916;28;20131;-69
2021/05/03 04:40:13;;;;;;;5.82;3.30;;;12.50;99.90;;;;;;5087919;28;20041;-69
2021/05/03 04:42:39;;;;;;;5.82;2.92;;;12.50;99.90;;;;;;5071033;28;20150;-70
2021/05/03 04:45:06;;;;;;;3.22;2.70;;;12.60;99.90;;;;;;5072163;28;20481;-69
2021/05/03 04:47:32;;;;;;;3.00;2.80;;;12.70;99.90;;;;;;5054579;28;20240;-70
2021/05/03 04:49:58;;;;;;;2.88;2.65;;;12.70;99.90;;;;;;5075406;28;20079;-68
2021/05/03 04:52:25;;;;;;;4.30;3.03;;;12.70;99.90;;;;;;5076031;28;20028;-68
2021/05/03 04:54:51;;;;;;;6.53;3.60;;;12.70;99.90;;;;;;5057890;28;20044;-69
2021/05/03 04:57:17;;;;;;;6.35;4.50;;;12.70;99.90;;;;;;5075717;28;20150;-70
2021/05/03 04:59:43;;;;;;;4.20;3.70;;;12.70;99.90;;;;;;5057850;28;20070;-70
2021/05/03 05:02:10;;;;;;;3.60;3.30;;;12.60;99.90;;;;;;5075793;28;20055;-69
2021/05/03 05:04:37;;;;;;;3.95;3.35;;;12.50;99.90;;;;;;5057725;28;20488;-70
2021/05/03 05:07:03;;;;;;;4.97;3.58;;;12.50;99.90;;;;;;5075334;28;20024;-70
2021/05/03 05:09:29;;;;;;;5.60;3.80;;;12.50;99.90;;;;;;5075603;28;20032;-69
2021/05/03 05:11:55;;;;;;;3.50;3.20;;;12.50;99.90;;;;;;5075616;28;20024;-69
2021/05/03 05:14:21;;;;;;;4.18;3.88;;;12.40;99.90;;;;;;5057566;28;20372;-69
2021/05/03 05:16:48;;;;;;;5.32;3.28;;;12.40;99.90;;;;;;5075734;28;20032;-70
2021/05/03 05:19:14;;;;;;;4.97;4.00;;;12.50;99.90;;;;;;5075363;28;20056;-71
2021/05/03 05:21:41;;;;;;;5.22;4.55;;;12.50;99.90;;;;;;5075468;28;20029;-69
2021/05/03 05:24:07;;;;;;;4.68;4.05;;;12.50;99.90;;;;;;5057579;28;20477;-70
2021/05/03 05:26:33;;;;;;;4.72;3.58;;;12.50;99.90;;;;;;5057501;28;20031;-69
2021/05/03 05:28:59;;;;;;;3.83;3.30;;;12.50;99.90;;;;;;5057530;28;20469;-68
2021/05/03 05:31:25;;;;;;;3.72;3.38;;;12.50;99.90;;;;;;5075371;28;20085;-70
2021/05/03 05:33:51;;;;;;;3.53;3.03;;;12.60;99.90;;;;;;5057376;28;20489;-69
2021/05/03 05:36:17;;;;;;;3.70;3.05;;;12.70;99.90;;;;;;5075374;28;20044;-71
2021/05/03 05:38:43;;;;;;;4.07;3.78;;;13.00;99.90;;;;;;5057280;28;20025;-69
2021/05/03 05:41:13;;;;;;;4.85;3.20;;;13.20;99.90;;;;;;5075234;28;20028;-69
2021/05/03 05:43:39;;;;;;;3.42;2.88;;;13.30;99.90;;;;;;5075229;28;20025;-71
2021/05/03 05:46:05;;;;;;;5.20;3.38;;;13.50;99.90;;;;;;5057094;28;20457;-70
2021/05/03 05:48:32;;;;;;;5.72;3.80;;;13.60;99.90;;;;;;5075169;28;20033;-70
2021/05/03 05:50:57;;;;;;;4.78;4.10;;;13.70;99.90;;;;;;5056991;28;20093;-70
2021/05/03 05:53:23;;;;;;;3.58;3.00;;;13.90;99.90;;;;;;5075011;28;20108;-69
2021/05/03 05:55:49;;;;;;;3.20;2.95;;;13.90;98.90;;;;;;5053342;28;20398;-69
2021/05/03 05:58:15;;;;;;;3.13;2.90;;;14.00;97.90;;;;;;5054331;28;20048;-70
2021/05/03 06:00:41;;;;;;;4.20;3.30;;;14.00;97.70;;;;;;5054401;28;20469;-70
2021/05/03 06:03:07;;;;;;;3.58;3.05;;;13.90;97.80;;;;;;5053526;28;20135;-71
2021/05/03 06:05:33;;;;;;;2.95;2.75;;;13.90;97.00;;;;;;5054515;28;20037;-68
2021/05/03 06:07:59;;;;;;;3.78;3.00;;;13.80;95.80;;;;;;5053365;28;20533;-68
2021/05/03 06:10:25;;;;;;;3.13;2.92;;;13.90;96.50;;;;;;5054674;28;20076;-69
2021/05/03 06:12:51;;;;;;;3.10;2.90;;;13.90;96.00;;;;;;5053331;28;20065;-69
2021/05/03 06:15:16;;;;;;;3.50;3.20;;;14.10;95.30;;;;;;5053264;28;20362;-70
2021/05/03 06:17:42;;;;;;;3.95;3.55;;;14.30;94.90;;;;;;5054427;28;20029;-71
2021/05/03 06:20:09;;;;;;;4.80;3.55;;;14.50;94.40;;;;;;5052899;28;20042;-70
2021/05/03 06:22:36;;;;;;;5.80;3.38;;;14.60;93.90;;;;;;5053102;28;20028;-70
2021/05/03 06:25:02;;;;;;;4.10;3.40;;;14.70;93.20;;;;;;5054370;28;20028;-68
2021/05/03 06:27:28;;;;;;;3.83;3.40;;;14.80;93.00;;;;;;5053244;28;20033;-68
2021/05/03 06:29:54;;;;;;;3.72;3.42;;;14.90;92.40;;;;;;5052829;28;20540;-70
2021/05/03 06:32:20;;;;;;;3.53;3.25;;;14.80;93.10;;;;;;5054249;28;20029;-68
2021/05/03 06:34:46;;;;;;;3.65;3.35;;;14.70;92.60;;;;;;5054144;28;20048;-71
2021/05/03 06:37:12;;;;;;;4.90;3.78;;;14.60;93.20;;;;;;5053968;28;20028;-69
2021/05/03 06:39:39;;;;;;;4.72;3.88;;;14.60;93.30;;;;;;5054064;28;20029;-70
2021/05/03 06:42:06;;;;;;;5.28;3.65;;;14.70;93.50;;;;;;5053814;28;20063;-70
2021/05/03 06:44:34;;;;;;;4.30;3.80;;;14.70;93.30;;;;;;5052390;28;20028;-71
2021/05/03 06:47:01;;;;;;;3.95;3.65;;;14.80;92.70;;;;;;5052603;28;20047;-71
2021/05/03 06:49:27;;;;;;;6.70;3.78;;;14.90;92.60;;;;;;5053922;28;20025;-70
2021/05/03 06:51:53;;;;;;;4.15;3.67;;;15.30;93.20;;;;;;5052543;28;20485;-71
2021/05/03 06:54:31;;;;;;;4.18;3.78;;;15.30;92.20;;;;;;5055070;28;20162;-70
2021/05/03 06:56:57;;;;;;;12.65;4.10;;;15.40;92.40;;;;;;5055287;28;20063;-69
2021/05/03 06:59:24;;;;;;;5.30;3.88;;;15.50;96.60;;;;;;5073493;28;20443;-69
2021/05/03 07:01:50;;;;;;;14.18;3.90;;;15.90;95.80;;;;;;5073645;28;20028;-66
2021/05/03 07:04:16;;;;;;;5.82;3.88;;;;;;;;;;5073613;28;20381;-67
2021/05/03 07:06:42;;;;;;;5.07;4.03;;;16.20;97.90;;;;;;5073277;28;20107;-67
2021/05/03 07:09:09;;;;;;;5.32;4.20;;;16.40;97.20;;;;;;5073593;28;20492;-70
2021/05/03 07:11:36;;;;;;;6.25;4.40;;;16.00;90.80;;;;;;5073041;28;20120;-68
2021/05/03 07:14:03;;;;;;;5.65;4.00;;;15.90;92.20;;;;;;5073370;28;20070;-68
2021/05/03 07:16:29;;;;;;;6.43;4.47;;;15.90;93.60;;;;;;5055444;28;20110;-68
2021/05/03 07:18:55;;;;;;;8.63;4.32;;;16.00;94.70;;;;;;5055381;28;20024;-69
2021/05/03 07:21:21;;;;;;;4.68;3.97;;;15.90;93.70;;;;;;5073389;28;20033;-69
2021/05/03 07:23:49;;;;;;;11.75;4.45;;;15.90;92.00;;;;;;5073575;28;20483;-68
2021/05/03 07:26:15;;;;;;;4.78;4.30;;;15.70;91.60;;;;;;5073098;28;20085;-70
2021/05/03 07:28:41;;;;;;;4.75;4.35;;;15.70;90.60;;;;;;5073251;28;20020;-69
2021/05/03 07:31:07;;;;;;;4.82;4.43;;;15.70;91.30;;;;;;5073149;28;20036;-70
2021/05/03 07:33:33;;;;;;;6.93;4.10;;;15.60;91.20;;;;;;5073188;28;20070;-70
2021/05/03 07:35:59;;;;;;;5.68;4.53;;;15.60;92.40;;;;;;5072855;28;20032;-69
2021/05/03 07:38:26;;;;;;;4.78;4.05;;;15.70;91.90;;;;;;5072056;28;20070;-71
2021/05/03 07:40:51;;;;;;;4.97;4.47;;;15.70;91.20;;;;;;5053915;28;20029;-70
2021/05/03 07:43:17;;;;;;;5.25;4.75;;;15.80;91.00;;;;;;5054678;28;20381;-70
2021/05/03 07:45:43;;;;;;;5.15;4.70;;;15.60;91.10;;;;;;5072508;28;20025;-70
2021/05/03 07:48:09;;;;;;;5.78;4.50;;;15.70;91.20;;;;;;5073135;28;20028;-70
2021/05/03 07:50:37;;;;;;;5.03;4.53;;;16.10;91.10;;;;;;5072987;28;20050;-70
2021/05/03 07:53:03;;;;;;;5.30;4.82;;;16.50;90.40;;;;;;5054988;28;20033;-69
2021/05/03 07:55:29;;;;;;;5.07;4.63;;;16.40;90.30;;;;;;5072613;28;20488;-69
2021/05/03 07:57:58;;;;;;;5.47;4.75;;;16.50;90.20;;;;;;5072967;28;20032;-69
2021/05/03 08:00:24;;;;;;;5.13;4.65;;;16.90;90.20;;;;;;5054921;28;20029;-68
2021/05/03 08:02:50;;;;;;;5.50;5.00;;;16.80;90.10;;;;;;5072869;28;20055;-71
2021/05/03 08:05:16;;;;;;;4.50;4.10;;;16.50;89.10;;;;;;5072867;28;20420;-72
2021/05/03 08:07:41;;;;;;;5.78;4.43;;;16.50;88.40;;;;;;5071473;28;20483;-71
2021/05/03 08:10:08;;;;;;;9.80;5.57;;;16.80;89.60;;;;;;5072344;28;20040;-72
2021/05/03 08:12:34;;;;;;;6.95;4.82;;;16.90;87.70;;;;;;5072779;28;20028;-71
2021/05/03 08:15:09;;;;;;;6.38;4.93;;;17.00;87.50;;;;;;5054680;28;20042;-71
2021/05/03 08:17:35;;;;;;;5.18;4.55;;;17.10;87.90;;;;;;5054760;28;20473;-71
2021/05/03 08:20:02;;;;;;;5.10;4.65;;;17.10;83.80;;;;;;5054761;28;20085;-70
2021/05/03 08:22:28;;;;;;;5.55;5.00;;;17.30;82.70;;;;;;5055780;28;20028;-70
2021/05/03 08:24:54;;;;;;;6.10;5.40;;;17.60;83.40;;;;;;5058560;28;20028;-70
2021/05/03 08:27:20;;;;;;;6.03;5.07;;;17.70;83.60;;;;;;5076399;28;20031;-72
2021/05/03 08:29:46;;;;;;;7.15;5.35;;;17.80;82.40;;;;;;5056158;28;20123;-71
2021/05/03 08:32:11;;;;;;;5.35;4.68;;;17.50;80.20;;;;;;5075806;28;20103;-71
2021/05/03 08:34:37;;;;;;;5.15;4.60;;;17.30;80.70;;;;;;5076414;28;20028;-71
2021/05/03 08:37:03;;;;;;;5.57;4.80;;;17.30;83.00;;;;;;5076089;28;20032;-72
2021/05/03 08:39:29;;;;;;;5.43;4.80;;;17.00;81.80;;;;;;5076002;28;20046;-71
2021/05/03 08:41:57;;;;;;;7.55;5.57;;;17.10;82.80;;;;;;5057722;28;20032;-71
2021/05/03 08:44:26;;;;;;;6.78;5.90;;;17.00;81.40;;;;;;5076212;28;20028;-72
2021/05/03 08:46:52;;;;;;;7.70;5.88;;;17.00;82.10;;;;;;5058278;28;20082;-71
2021/05/03 08:49:38;;;;;;;5.57;5.07;;;17.10;81.20;;;;;;5076101;28;20052;-72
2021/05/03 08:52:11;;;;;;;6.47;5.35;;;17.30;79.10;;;;;;5076181;28;20056;-72
2021/05/03 08:54:42;;;;;;;5.63;5.07;;;17.70;78.60;;;;;;5058257;28;20025;-72
2021/05/03 08:57:11;;;;;;;6.00;5.45;;;18.00;77.50;;;;;;5058148;28;20044;-71
2021/05/03 08:59:39;;;;;;;5.47;4.82;;;18.30;78.10;;;;;;5076083;28;20376;-71
2021/05/03 09:02:06;;;;;;;6.97;5.10;;;18.30;76.70;;;;;;5058001;28;20032;-71
2021/05/03 09:04:34;;;;;;;6.25;5.38;;;18.60;77.20;;;;;;5073880;28;20020;-72
2021/05/03 09:07:10;;;;;;;5.00;4.60;;;18.60;75.30;;;;;;5074104;28;20032;-71
2021/05/03 09:09:39;;;;;;;10.77;5.55;;;18.50;76.60;;;;;;5057363;28;20064;-72
2021/05/03 09:12:14;;;;;;;6.15;5.55;;;19.00;74.30;;;;;;5057871;28;20036;-72
2021/05/03 09:15:02;;;;;;;6.53;5.93;;;19.00;74.20;;;;;;5057738;28;20028;-73
2021/05/03 09:17:31;;;;;;;5.93;5.32;;;18.90;74.30;;;;;;5057708;28;20024;-72
2021/05/03 09:19:58;;;;;;;7.80;6.03;;;18.50;74.10;;;;;;5057447;28;20381;-71
2021/05/03 09:28:04;;;;;;;5.85;5.30;;;17.70;77.00;;;;;;5075471;28;20380;-72
2021/05/03 09:30:44;;;;;;;7.47;5.80;;;17.70;76.90;;;;;;5075377;28;20444;-72
2021/05/03 09:33:23;;;;;;;7.35;6.65;;;17.80;75.80;;;;;;5056579;28;20031;-72
2021/05/03 09:35:57;;;;;;;7.50;5.68;;;17.90;76.90;;;;;;5074957;28;20072;-74
2021/05/03 09:38:27;;;;;;;7.40;6.70;;;17.80;74.50;;;;;;5056870;28;20025;-73
2021/05/03 09:41:14;;;;;;;6.07;5.47;;;17.90;74.50;;;;;;5075070;28;20516;-71
2021/05/03 09:43:52;;;;;;;8.40;6.65;;;17.70;74.70;;;;;;5056646;28;20157;-72
2021/05/03 09:46:48;;;;;;;7.15;6.45;;;17.50;76.30;;;;;;5074454;28;20028;-72
2021/05/03 09:49:19;;;;;;;8.98;5.55;;;17.50;76.10;;;;;;5057785;28;20392;-72
2021/05/03 09:51:48;;;;;;;8.10;6.45;;;17.60;77.40;;;;;;5056598;28;20127;-71
2021/05/03 09:54:15;;;;;;;6.13;5.60;;;17.50;76.00;;;;;;5074179;28;20032;-73
2021/05/03 09:56:46;;;;;;;7.50;6.40;;;17.40;75.20;;;;;;5074488;28;20040;-73
2021/05/03 09:59:29;;;;;;;7.03;6.32;;;17.20;76.60;;;;;;5056684;28;20112;-71
2021/05/03 10:05:06;;;;;;;7.22;5.72;;;17.30;74.40;;;;;;5072466;28;20032;-72
2021/05/03 10:07:35;;;;;;;7.20;6.50;;;17.30;75.40;;;;;;5074550;28;20048;-73
2021/05/03 10:10:06;;;;;;;7.25;6.55;;;17.40;75.00;;;;;;5056625;28;20035;-73
2021/05/03 10:12:33;;;;;;;6.82;6.13;;;17.30;73.50;;;;;;5074476;28;20070;-72
2021/05/03 10:15:00;;;;;;;6.30;5.70;;;17.40;73.40;;;;;;5056622;28;20469;-73
2021/05/03 10:17:29;;;;;;;6.65;6.05;;;17.60;74.60;;;;;;5074514;28;20020;-73
2021/05/03 10:19:58;;;;;;;6.82;6.18;;;17.90;73.20;;;;;;5056379;28;20120;-73
2021/05/03 10:22:27;;;;;;;7.28;6.00;;;18.20;73.00;;;;;;5073756;28;20020;-73
2021/05/03 10:24:56;;;;;;;6.32;5.82;;;18.60;70.50;;;;;;5055892;28;20028;-73
2021/05/03 10:27:24;;;;;;;5.72;5.22;;;19.10;66.60;;;;;;5056137;28;20421;-72
2021/05/03 10:30:05;;;;;;;6.60;6.00;;;19.60;66.20;;;;;;5073994;28;20032;-72
2021/05/03 10:32:31;;;;;;;6.13;5.63;;;19.70;67.60;;;;;;5056222;28;20040;-72
2021/05/03 10:34:59;;;;;;;5.80;5.30;;;19.70;67.40;;;;;;5073999;28;20028;-71
2021/05/03 10:37:32;;;;;;;7.00;4.90;;;19.60;66.70;;;;;;5055950;28;20480;-72
2021/05/03 10:40:13;;;;;;;4.90;4.43;;;20.00;64.60;;;;;;5055917;28;20032;-72
2021/05/03 10:43:06;;;;;;;4.82;4.35;;;21.50;63.20;;;;;;5055874;28;20036;-72
2021/05/03 10:45:43;;;;;;;5.63;4.45;;;;;;;;;;5073182;28;20052;-73
2021/05/03 10:48:29;;;;;;;11.63;5.40;;;;;;;;;;5055823;28;20020;-72
2021/05/03 10:50:55;;;;;;;5.72;4.60;;;;;;;;;;5073630;28;20074;-73
2021/05/03 10:53:23;;;;;;;5.93;5.32;;;;;;;;;;5055677;28;20032;-72
2021/05/03 10:55:50;;;;;;;5.05;4.60;;;;;;;;;;5073526;28;20048;-71
2021/05/03 10:58:16;;;;;;;6.40;4.97;;;;;;;;;;5073726;28;20044;-73
2021/05/03 11:00:55;;;;;;;4.15;3.75;;;;;;;;;;5073704;28;20028;-71
2021/05/03 11:03:41;;;;;;;5.38;4.88;;;;;;;;;;5055791;28;20035;-73
2021/05/03 11:06:07;;;;;;;20.35;5.28;;;;;;;;;;5073268;28;20391;-72
2021/05/03 11:08:34;;;;;;;4.78;4.38;;;;;;;;;;5055289;28;20115;-72
2021/05/03 11:11:07;;;;;;;5.65;4.07;;;;;;;;;;5055432;28;20037;-73
2021/05/03 11:13:37;;;;;;;5.15;4.15;;;;;;;;;;5072207;28;20027;-75
2021/05/03 11:16:23;;;;;;;4.50;4.10;;;;;;;;;;5053981;28;20025;-72
2021/05/03 11:18:49;;;;;;;4.85;3.60;;;;;;;;;;5058932;28;20045;-75
2021/05/03 11:21:17;;;;;;;4.10;3.70;;;;;;;;;;5055351;28;20036;-74
2021/05/03 11:23:43;;;;;;;3.63;3.33;;;;;;;;;;5055199;28;20029;-73
2021/05/03 11:26:23;;;;;;;4.57;4.00;;;;;;;;;;5073201;28;20021;-74
2021/05/03 11:28:50;;;;;;;5.05;3.80;;;;;;;;;;5055121;28;20042;-72
2021/05/03 11:31:18;;;;;;;4.03;3.65;;;;;;;;;;5072714;28;20071;-73
2021/05/03 11:33:52;;;;;;;4.18;3.88;;;;;;;;;;5072769;28;20079;-71
2021/05/03 11:36:23;;;;;;;6.25;3.70;;;;;;;;;;5055075;28;20020;-74
2021/05/03 11:39:27;;;;;;;3.78;3.45;;;;;;;;;;5073047;28;20016;-74
2021/05/03 11:42:21;;;;;;;4.90;3.38;;;;;;;;;;5068501;28;20036;-75
2021/05/03 11:44:58;;;;;;;4.50;3.78;;;;;;;;;;5072658;28;20024;-77
2021/05/03 11:47:32;;;;;;;3.85;3.55;;;;;;;;;;5072889;28;20052;-76
2021/05/03 11:49:59;;;;;;;3.90;3.60;;;;;;;;;;5072788;28;20052;-73
2021/05/03 11:52:29;;;;;;;3.20;3.00;;;;;;;;;;5054967;28;20137;-76
2021/05/03 11:55:04;;;;;;;3.65;3.30;;;;;;;;;;5054633;28;20024;-74
2021/05/03 11:57:32;;;;;;;3.28;2.97;;;;;;;;;;5072131;28;20020;-74
2021/05/03 11:59:59;;;;;;;3.45;3.15;;;;;;;;;;5072918;28;20063;-74
2021/05/03 12:02:27;;;;;;;2.60;2.40;;;;;;;;;;5072766;28;20499;-76
2021/05/03 12:04:54;;;;;;;3.95;3.22;;;;;;;;;;5054712;28;20031;-78
2021/05/03 12:07:24;;;;;;;3.45;3.15;;;;;;;;;;5072765;28;20020;-74
2021/05/03 12:09:59;;;;;;;4.20;3.40;;;;;;;;;;5054682;28;20052;-75
2021/05/03 12:12:31;;;;;;;3.28;2.97;;;;;;;;;;5072637;28;20032;-74
2021/05/03 12:14:57;;;;;;;3.38;3.08;;;;;;;;;;5054536;28;20091;-73
2021/05/03 12:17:25;;;;;;;3.50;3.20;;;;;;;;;;5072675;28;20031;-73
2021/05/03 12:19:52;;;;;;;5.70;2.80;;;;;;;;;;5072009;28;20078;-75
2021/05/03 12:22:19;;;;;;;3.83;3.20;;;;;;;;;;5071381;28;20029;-73
2021/05/03 12:24:46;;;;;;;4.90;3.53;;;;;;;;;;5072219;28;20052;-76
2021/05/03 12:27:13;;;;;;;4.25;3.40;;;27.10;37.00;;;;;;5054498;28;20489;-74
2021/05/03 12:29:43;;;;;;;3.95;3.50;;;26.70;37.80;;;;;;5054313;28;20029;-76
2021/05/03 12:32:17;;;;;;;4.13;3.60;;;25.90;40.00;;;;;;5054164;28;20116;-73
2021/05/03 12:34:49;;;;;;;3.58;3.15;;;25.20;42.10;;;;;;5072136;28;20036;-75
2021/05/03 12:37:20;;;;;;;3.53;3.03;;;;;;;;;;5054308;28;20038;-72
2021/05/03 12:39:57;;;;;;;3.78;3.45;;;;;;;;;;5054471;28;20025;-74
2021/05/03 12:42:29;;;;;;;4.30;3.10;;;26.50;38.10;;;;;;5072530;28;20032;-75
2021/05/03 12:44:57;;;;;;;;;;;26.40;38.40;;;;;;5054806;28;20028;-73
2021/05/03 12:48:08;;;;;;;3.38;3.15;;;26.10;39.70;;;;;;5054373;28;19966;-75
2021/05/03 12:50:34;;;;;;;4.25;3.25;;;26.60;40.40;;;;;;5068698;28;20132;-77
2021/05/03 12:56:09;;;;;;;3.92;3.53;;;;;;;;;;5071977;28;20094;-70
2021/05/03 12:58:45;;;;;;;5.00;3.60;;;;;;;;;;5070881;28;20555;-73
2021/05/03 13:22:36;;;;;;;3.60;3.30;;;26.10;37.00;;;;;;5075126;28;20035;-74
2021/05/03 13:25:36;;;;;;;3.10;2.90;;;25.30;40.90;;;;;;5057549;28;20445;-72
2021/05/03 13:28:07;;;;;;;4.03;3.30;;;27.60;38.50;;;;;;5075590;28;20526;-72
2021/05/03 13:30:35;;;;;;;6.25;4.53;;;28.60;38.40;;;;;;5075424;28;20044;-71
2021/05/03 13:33:01;;;;;;;5.00;4.40;;;;;;;;;;5057449;28;20115;-70
2021/05/03 13:35:27;;;;;;;5.68;3.88;;;;;;;;;;5057302;28;20052;-71
2021/05/03 13:37:54;;;;;;;4.85;3.90;;;;;;;;;;5074156;28;20024;-71
2021/05/03 13:40:21;;;;;;;3.83;3.42;;;;;;;;;;5054548;28;20059;-71
2021/05/03 13:42:53;;;;;;;5.28;3.55;;;;;;;;;;5056632;28;20024;-74
2021/05/03 13:45:22;;;;;;;3.88;3.08;;;;;;;;;;5057324;28;20021;-73
2021/05/03 13:47:49;;;;;;;4.03;2.90;;;;;;;;;;5074916;28;20025;-72
2021/05/03 13:50:16;;;;;;;2.90;2.70;;;;;;;;;;5057034;28;20385;-72
2021/05/03 13:52:42;;;;;;;3.45;3.15;;;;;;;;;;5057076;28;20086;-73
2021/05/03 13:55:09;;;;;;;2.90;2.70;;;;;;;;;;5074842;28;20052;-74
2021/05/03 13:57:35;;;;;;;2.95;2.72;;;;;;;;;;5057285;28;20800;-74
2021/05/03 14:00:03;;;;;;;2.55;2.40;;;;;;;;;;5075277;28;20032;-72